Time;durP1;ratioP1;P1;durP2;ratioP2;P2;SDS_P1;SDS_P2;PMS_P1;PMS_P2;Temp;Humidity;BMP_temperature;BMP_pressure;BME280_temperature;BME280_humidity;BME280_pressure;Samples;Min_cycle;Max_cycle;Signal;HPM_P1;HPM_P2
2023/08/20 00:00:14;;;;;;;;;;;;;;;;;;5015259;28;19965;-76
2023/08/20 00:02:40;;;;;;;;;;;;;;;;;;5029066;28;19921;-76
2023/08/20 00:05:05;;;;;;;;;;;;;;;;;;5032087;28;19920;-76
2023/08/20 00:07:31;;;;;;;;;;;;;;;;;;5017819;28;19943;-76
2023/08/20 00:09:57;;;;;;;;;;;;;;;;;;5034836;28;19981;-76
2023/08/20 00:12:24;;;;;;;;;;;;;;;;;;5035507;28;19921;-76
2023/08/20 00:14:50;;;;;;;;;;;;;;;;;;5035491;28;19920;-77
2023/08/20 00:17:16;;;;;;;;;;;;;;;;;;5033299;28;20282;-76
2023/08/20 00:19:42;;;;;;;;;;;;;;;;;;5032690;28;20015;-76
2023/08/20 00:22:08;;;;;;;;;;;;;;;;;;5018331;28;19932;-76
2023/08/20 00:24:34;;;;;;;;;;;;;;;;;;5033409;28;19927;-76
2023/08/20 00:27:00;;;;;;;;;;;;;;;;;;5032505;28;20662;-76
2023/08/20 00:29:26;;;;;;;;;;;;;;;;;;5017649;28;19921;-76
2023/08/20 00:31:52;;;;;;;;;;;;;;;;;;5033861;28;19920;-77
2023/08/20 00:34:17;;;;;;;;;;;;;;;;;;5033438;28;19925;-76
2023/08/20 00:36:43;;;;;;;;;;;;;;;;;;5034694;28;19920;-77
2023/08/20 00:39:09;;;;;;;;;;;;;;;;;;5031800;28;19921;-76
2023/08/20 00:41:35;;;;;;;;;;;;;;;;;;5034384;28;19960;-76
2023/08/20 00:44:01;;;;;;;;;;;;;;;;;;5033322;28;20369;-75
2023/08/20 00:46:27;;;;;;;;;;;;;;;;;;5034684;28;20361;-76
2023/08/20 00:48:53;;;;;;;;;;;;;;;;;;5032854;28;20373;-77
2023/08/20 00:51:19;;;;;;;;;;;;;;;;;;5028749;28;20413;-76
2023/08/20 00:53:45;;;;;;;;;;;;;;;;;;5028386;28;19920;-76
2023/08/20 00:56:11;;;;;;;;;;;;;;;;;;5033727;28;19986;-76
2023/08/20 00:58:37;;;;;;;;;;;;;;;;;;5016204;28;19921;-76
2023/08/20 01:01:03;;;;;;;;;;;;;;;;;;5013772;28;20366;-76
2023/08/20 01:03:29;;;;;;;;;;;;;;;;;;5019714;28;20421;-77
2023/08/20 01:05:55;;;;;;;;;;;;;;;;;;5030967;28;20366;-76
2023/08/20 01:08:21;;;;;;;;;;;;;;;;;;5033342;28;19920;-75
2023/08/20 01:10:46;;;;;;;;;;;;;;;;;;5017483;28;19952;-75
2023/08/20 01:13:12;;;;;;;;;;;;;;;;;;5033162;28;19987;-75
2023/08/20 01:15:38;;;;;;;;;;;;;;;;;;5034675;28;19927;-75
2023/08/20 01:18:04;;;;;;;;;;;;;;;;;;5031596;28;19921;-75
2023/08/20 01:20:31;;;;;;;;;;;;;;;;;;5030938;28;20429;-75
2023/08/20 01:22:57;;;;;;;;;;;;;;;;;;5033385;28;19924;-77
2023/08/20 01:25:23;;;;;;;;;;;;;;;;;;5029094;28;19971;-75
2023/08/20 01:27:49;;;;;;;;;;;;;;;;;;5030454;28;19921;-75
2023/08/20 01:30:14;;;;;;;;;;;;;;;;;;5026824;28;19964;-76
2023/08/20 01:32:43;;;;;;;;;;;;;;;;;;5012598;28;19928;-76
2023/08/20 01:35:09;;;;;;;;;;;;;;;;;;5025985;28;20278;-76
2023/08/20 01:37:35;;;;;;;;;;;;;;;;;;5029992;28;19925;-76
2023/08/20 01:40:01;;;;;;;;;;;;;;;;;;5028984;28;20282;-76
2023/08/20 01:42:27;;;;;;;;;;;;;;;;;;5028680;28;19990;-75
2023/08/20 01:44:53;;;;;;;;;;;;;;;;;;5013890;28;19970;-75
2023/08/20 01:47:19;;;;;;;;;;;;;;;;;;5027222;28;19921;-75
2023/08/20 01:49:45;;;;;;;;;;;;;;;;;;5029808;28;19929;-76
2023/08/20 01:52:12;;;;;;;;;;;;;;;;;;5024051;28;19928;-77
2023/08/20 01:54:37;;;;;;;;;;;;;;;;;;5028748;28;20485;-76
2023/08/20 01:57:03;;;;;;;;;;;;;;;;;;5028726;28;19928;-76
2023/08/20 01:59:29;;;;;;;;;;;;;;;;;;5029742;28;19925;-75
2023/08/20 02:01:55;;;;;;;;;;;;;;;;;;5013910;28;19929;-76
2023/08/20 02:04:21;;;;;;;;;;;;;;;;;;5032573;28;20437;-75
2023/08/20 02:06:47;;;;;;;;;;;;;;;;;;5018827;28;19925;-76
2023/08/20 02:09:13;;;;;;;;;;;;;;;;;;5033280;28;20030;-76
2023/08/20 02:11:39;;;;;;;;;;;;;;;;;;5033695;28;20370;-76
2023/08/20 02:14:05;;;;;;;;;;;;;;;;;;5032048;28;19925;-77
2023/08/20 02:16:31;;;;;;;;;;;;;;;;;;5017518;28;20365;-76
2023/08/20 02:18:57;;;;;;;;;;;;;;;;;;5034971;28;19921;-75
2023/08/20 02:21:23;;;;;;;;;;;;;;;;;;5034227;28;19928;-75
2023/08/20 02:23:49;;;;;;;;;;;;;;;;;;5030865;28;19921;-76
2023/08/20 02:26:15;;;;;;;;;;;;;;;;;;5034095;28;19921;-76
2023/08/20 02:28:41;;;;;;;;;;;;;;;;;;5032167;28;20309;-76
2023/08/20 02:31:07;;;;;;;;;;;;;;;;;;5032736;28;19929;-77
2023/08/20 02:33:33;;;;;;;;;;;;;;;;;;5029489;28;20401;-75
2023/08/20 02:35:59;;;;;;;;;;;;;;;;;;5033838;28;20262;-75
2023/08/20 02:38:25;;;;;;;;;;;;;;;;;;5016169;28;19921;-76
2023/08/20 02:40:51;;;;;;;;;;;;;;;;;;5016779;28;19936;-75
2023/08/20 02:43:17;;;;;;;;;;;;;;;;;;5031281;28;19921;-75
2023/08/20 02:45:43;;;;;;;;;;;;;;;;;;5032171;28;19928;-76
2023/08/20 02:48:09;;;;;;;;;;;;;;;;;;5024392;28;19932;-77
2023/08/20 02:50:35;;;;;;;;;;;;;;;;;;5031395;28;20378;-76
2023/08/20 02:53:01;;;;;;;;;;;;;;;;;;5033089;28;19921;-76
2023/08/20 02:55:27;;;;;;;;;;;;;;;;;;5031582;28;20014;-76
2023/08/20 02:57:53;;;;;;;;;;;;;;;;;;5032688;28;19921;-76
2023/08/20 03:00:19;;;;;;;;;;;;;;;;;;5032964;28;19928;-76
2023/08/20 03:02:45;;;;;;;;;;;;;;;;;;5028368;28;19960;-75
2023/08/20 03:05:11;;;;;;;;;;;;;;;;;;5031871;28;19967;-77
2023/08/20 03:07:37;;;;;;;;;;;;;;;;;;5032880;28;19996;-76
2023/08/20 03:10:03;;;;;;;;;;;;;;;;;;5017623;28;19921;-75
2023/08/20 03:12:29;;;;;;;;;;;;;;;;;;5032083;28;20227;-75
2023/08/20 03:14:55;;;;;;;;;;;;;;;;;;5032380;28;19921;-75
2023/08/20 03:17:21;;;;;;;;;;;;;;;;;;5033002;28;20401;-76
2023/08/20 03:19:47;;;;;;;;;;;;;;;;;;5033488;28;20362;-75
2023/08/20 03:22:13;;;;;;;;;;;;;;;;;;5032101;28;19921;-76
2023/08/20 03:24:39;;;;;;;;;;;;;;;;;;5016115;28;20406;-75
2023/08/20 03:27:05;;;;;;;;;;;;;;;;;;5032206;28;20367;-75
2023/08/20 03:29:31;;;;;;;;;;;;;;;;;;5015199;28;19921;-76
2023/08/20 03:31:57;;;;;;;;;;;;;;;;;;5032547;28;19991;-75
2023/08/20 03:34:23;;;;;;;;;;;;;;;;;;5032339;28;19921;-76
2023/08/20 03:36:49;;;;;;;;;;;;;;;;;;5030135;28;20260;-76
2023/08/20 03:39:14;;;;;;;;;;;;;;;;;;5032415;28;19928;-76
2023/08/20 03:41:40;;;;;;;;;;;;;;;;;;5032392;28;19921;-76
2023/08/20 03:44:06;;;;;;;;;;;;;;;;;;5014678;28;20337;-76
2023/08/20 03:46:32;;;;;;;;;;;;;;;;;;5014673;28;19944;-76
2023/08/20 03:48:58;;;;;;;;;;;;;;;;;;5032719;28;19925;-76
2023/08/20 03:51:24;;;;;;;;;;;;;;;;;;5025515;28;20341;-76
2023/08/20 03:53:50;;;;;;;;;;;;;;;;;;5032752;28;19921;-76
2023/08/20 03:56:16;;;;;;;;;;;;;;;;;;5031212;28;19928;-75
2023/08/20 03:58:42;;;;;;;;;;;;;;;;;;5030735;28;19921;-76
2023/08/20 04:01:08;;;;;;;;;;;;;;;;;;5015503;28;20422;-75
2023/08/20 04:03:34;;;;;;;;;;;;;;;;;;5032085;28;20298;-76
2023/08/20 04:06:00;;;;;;;;;;;;;;;;;;5013409;28;20001;-76
2023/08/20 04:08:26;;;;;;;;;;;;;;;;;;5030184;28;19921;-76
2023/08/20 04:10:52;;;;;;;;;;;;;;;;;;5015529;28;20329;-76
2023/08/20 04:13:18;;;;;;;;;;;;;;;;;;5014664;28;19925;-75
2023/08/20 04:15:44;;;;;;;;;;;;;;;;;;5014712;28;19932;-75
2023/08/20 04:18:10;;;;;;;;;;;;;;;;;;5026253;28;19921;-75
2023/08/20 04:20:36;;;;;;;;;;;;;;;;;;5030132;28;19928;-76
2023/08/20 04:23:02;;;;;;;;;;;;;;;;;;5031107;28;19921;-76
2023/08/20 04:25:28;;;;;;;;;;;;;;;;;;5013454;28;20004;-76
2023/08/20 04:27:54;;;;;;;;;;;;;;;;;;5028853;28;19929;-76
2023/08/20 04:30:20;;;;;;;;;;;;;;;;;;5028919;28;19928;-76
2023/08/20 04:32:46;;;;;;;;;;;;;;;;;;5013244;28;19956;-75
2023/08/20 04:35:12;;;;;;;;;;;;;;;;;;5031016;28;19929;-76
2023/08/20 04:37:38;;;;;;;;;;;;;;;;;;5030746;28;19925;-75
2023/08/20 04:40:07;;;;;;;;;;;;;;;;;;5013453;28;19921;-75
2023/08/20 04:42:33;;;;;;;;;;;;;;;;;;5013144;28;20358;-75
2023/08/20 04:44:59;;;;;;;;;;;;;;;;;;5022780;28;19928;-75
2023/08/20 04:47:25;;;;;;;;;;;;;;;;;;5014376;28;19921;-77
2023/08/20 04:49:51;;;;;;;;;;;;;;;;;;5012921;28;20358;-75
2023/08/20 04:52:19;;;;;;;;;;;;;;;;;;5014319;28;19958;-75
2023/08/20 04:54:44;;;;;;;;;;;;;;;;;;5013896;28;20509;-76
2023/08/20 04:57:11;;;;;;;;;;;;;;;;;;5029791;28;19928;-75
2023/08/20 04:59:36;;;;;;;;;;;;;;;;;;5028309;28;19927;-76
2023/08/20 05:02:02;;;;;;;;;;;;;;;;;;5013523;28;20341;-75
2023/08/20 05:04:28;;;;;;;;;;;;;;;;;;5031394;28;19952;-76
2023/08/20 05:06:55;;;;;;;;;;;;;;;;;;5026079;28;19925;-75
2023/08/20 05:09:21;;;;;;;;;;;;;;;;;;5030445;28;19927;-75
2023/08/20 05:11:47;;;;;;;;;;;;;;;;;;5012349;28;20536;-76
2023/08/20 05:14:12;;;;;;;;;;;;;;;;;;5031405;28;20274;-75
2023/08/20 05:16:38;;;;;;;;;;;;;;;;;;5013486;28;19928;-76
2023/08/20 05:19:04;;;;;;;;;;;;;;;;;;5030822;28;19928;-76
2023/08/20 05:21:30;;;;;;;;;;;;;;;;;;5012009;28;20047;-76
2023/08/20 05:23:56;;;;;;;;;;;;;;;;;;5029774;28;19925;-75
2023/08/20 05:26:22;;;;;;;;;;;;;;;;;;5031191;28;19927;-75
2023/08/20 05:28:48;;;;;;;;;;;;;;;;;;5029811;28;19932;-75
2023/08/20 05:31:14;;;;;;;;;;;;;;;;;;5028809;28;19921;-76
2023/08/20 05:33:40;;;;;;;;;;;;;;;;;;5027214;28;20019;-75
2023/08/20 05:36:06;;;;;;;;;;;;;;;;;;5022838;28;20012;-76
2023/08/20 05:38:32;;;;;;;;;;;;;;;;;;5026506;28;19971;-75
2023/08/20 05:40:58;;;;;;;;;;;;;;;;;;5030119;28;19929;-76
2023/08/20 05:43:24;;;;;;;;;;;;;;;;;;5028878;28;20016;-75
2023/08/20 05:45:50;;;;;;;;;;;;;;;;;;5029058;28;19925;-75
2023/08/20 05:48:16;;;;;;;;;;;;;;;;;;5029638;28;19928;-75
2023/08/20 05:50:42;;;;;;;;;;;;;;;;;;5028688;28;19925;-75
2023/08/20 05:53:08;;;;;;;;;;;;;;;;;;5027757;28;19925;-76
2023/08/20 05:55:34;;;;;;;;;;;;;;;;;;5030161;28;19971;-76
2023/08/20 05:58:00;;;;;;;;;;;;;;;;;;5022026;28;19971;-76
2023/08/20 06:00:26;;;;;;;;;;;;;;;;;;5030276;28;19921;-76
2023/08/20 06:02:52;;;;;;;;;;;;;;;;;;5011298;28;20003;-76
2023/08/20 06:05:17;;;;;;;;;;;;;;;;;;5029304;28;19941;-76
2023/08/20 06:07:43;;;;;;;;;;;;;;;;;;5012650;28;19921;-76
2023/08/20 06:10:09;;;;;;;;;;;;;;;;;;5029431;28;19921;-76
2023/08/20 06:12:35;;;;;;;;;;;;;;;;;;5027945;28;19928;-76
2023/08/20 06:15:01;;;;;;;;;;;;;;;;;;5029212;28;19920;-76
2023/08/20 06:17:27;;;;;;;;;;;;;;;;;;5030099;28;20398;-76
2023/08/20 06:19:53;;;;;;;;;;;;;;;;;;5028945;28;19928;-75
2023/08/20 06:22:19;;;;;;;;;;;;;;;;;;5028648;28;19975;-76
2023/08/20 06:24:45;;;;;;;;;;;;;;;;;;5027326;28;19921;-76
2023/08/20 06:27:11;;;;;;;;;;;;;;;;;;5010585;28;19928;-76
2023/08/20 06:29:38;;;;;;;;;;;;;;;;;;5029135;28;19921;-75
2023/08/20 06:32:04;;;;;;;;;;;;;;;;;;5029864;28;19921;-75
2023/08/20 06:34:30;;;;;;;;;;;;;;;;;;5027781;28;19928;-75
2023/08/20 06:36:56;;;;;;;;;;;;;;;;;;5011122;28;19917;-75
2023/08/20 06:39:22;;;;;;;;;;;;;;;;;;5029071;28;19921;-75
2023/08/20 06:41:48;;;;;;;;;;;;;;;;;;5028910;28;20298;-69
2023/08/20 06:44:15;;;;;;;;;;;;;;;;;;5030034;28;19925;-71
2023/08/20 06:46:41;;;;;;;;;;;;;;;;;;5029515;28;19928;-71
2023/08/20 06:49:07;;;;;;;;;;;;;;;;;;5031654;28;19975;-72
2023/08/20 06:51:33;;;;;;;;;;;;;;;;;;5034719;28;19922;-70
2023/08/20 06:53:58;;;;;;;;;;;;;;;;;;5033862;28;19925;-70
2023/08/20 06:56:24;;;;;;;;;;;;;;;;;;5034574;28;19954;-70
2023/08/20 06:58:50;;;;;;;;;;;;;;;;;;5030236;28;20384;-68
2023/08/20 07:01:16;;;;;;;;;;;;;;;;;;5029837;28;20239;-72
2023/08/20 07:03:42;;;;;;;;;;;;;;;;;;5033029;28;19983;-74
2023/08/20 07:06:14;;;;;;;;;;;;;;;;;;5031912;28;19925;-75
2023/08/20 07:08:40;;;;;;;;;;;;;;;;;;5030328;28;19925;-77
2023/08/20 07:11:06;;;;;;;;;;;;;;;;;;5030684;28;19921;-67
2023/08/20 07:13:32;;;;;;;;;;;;;;;;;;5046470;28;20563;-67
2023/08/20 07:15:58;;;;;;;;;;;;;;;;;;5031791;28;20378;-77
2023/08/20 07:18:24;;;;;;;;;;;;;;;;;;5030354;28;20263;-78
2023/08/20 07:20:50;;;;;;;;;;;;;;;;;;5030922;28;19928;-69
2023/08/20 07:23:16;;;;;;;;;;;;;;;;;;5031079;28;20393;-67
2023/08/20 07:25:42;;;;;;;;;;;;;;;;;;5050959;28;19924;-69
2023/08/20 07:28:08;;;;;;;;;;;;;;;;;;5050575;28;19921;-69
2023/08/20 07:30:34;;;;;;;;;;;;;;;;;;5050890;28;19929;-67
2023/08/20 07:33:00;;;;;;;;;;;;;;;;;;5046611;28;20382;-66
2023/08/20 07:35:26;;;;;;;;;;;;;;;;;;5043949;28;19979;-67
2023/08/20 07:37:52;;;;;;;;;;;;;;;;;;5052834;28;20016;-68
2023/08/20 07:40:18;;;;;;;;;;;;;;;;;;5047698;28;20008;-66
2023/08/20 07:42:43;;;;;;;;;;;;;;;;;;5035253;28;19970;-67
2023/08/20 07:45:09;;;;;;;;;;;;;;;;;;5051419;28;19921;-66
2023/08/20 07:47:35;;;;;;;;;;;;;;;;;;5052073;28;20060;-66
2023/08/20 07:50:01;;;;;;;;;;;;;;;;;;5051179;28;19920;-66
2023/08/20 07:52:27;;;;;;;;;;;;;;;;;;5044564;28;19921;-65
2023/08/20 07:54:53;;;;;;;;;;;;;;;;;;5052862;28;20008;-66
2023/08/20 07:57:19;;;;;;;;;;;;;;;;;;5050291;28;19998;-66
2023/08/20 07:59:45;;;;;;;;;;;;;;;;;;5051171;28;19921;-68
2023/08/20 08:02:11;;;;;;;;;;;;;;;;;;5051131;28;19928;-66
2023/08/20 08:04:37;;;;;;;;;;;;;;;;;;5050790;28;19987;-68
2023/08/20 08:07:03;;;;;;;;;;;;;;;;;;5052066;28;19920;-71
2023/08/20 08:09:29;;;;;;;;;;;;;;;;;;5028560;28;19925;-67
2023/08/20 08:11:55;;;;;;;;;;;;;;;;;;5044106;28;19925;-73
2023/08/20 08:14:21;;;;;;;;;;;;;;;;;;5034130;28;20003;-67
2023/08/20 08:16:47;;;;;;;;;;;;;;;;;;5052115;28;19945;-67
2023/08/20 08:19:13;;;;;;;;;;;;;;;;;;5045502;28;19929;-66
2023/08/20 08:21:39;;;;;;;;;;;;;;;;;;5051428;28;19929;-66
2023/08/20 08:24:05;;;;;;;;;;;;;;;;;;5051414;28;19920;-71
2023/08/20 08:26:31;;;;;;;;;;;;;;;;;;5052630;28;19928;-72
2023/08/20 08:28:57;;;;;;;;;;;;;;;;;;5051652;28;19983;-72
2023/08/20 08:31:23;;;;;;;;;;;;;;;;;;5051407;28;19995;-74
2023/08/20 08:33:49;;;;;;;;;;;;;;;;;;5051071;28;20377;-71
2023/08/20 08:36:16;;;;;;;;;;;;;;;;;;5050568;28;19920;-74
2023/08/20 08:38:42;;;;;;;;;;;;;;;;;;5048354;28;20463;-77
2023/08/20 08:41:08;;;;;;;;;;;;;;;;;;5033002;28;19920;-81
2023/08/20 08:43:34;;;;;;;;;;;;;;;;;;5014540;28;19968;-81
2023/08/20 08:46:00;;;;;;;;;;;;;;;;;;5030015;28;19921;-80
2023/08/20 08:48:26;;;;;;;;;;;;;;;;;;5030458;28;19927;-80
2023/08/20 08:50:52;;;;;;;;;;;;;;;;;;5014210;28;20004;-82
2023/08/20 08:53:18;;;;;;;;;;;;;;;;;;5010627;28;20015;-87
2023/08/20 08:55:44;;;;;;;;;;;;;;;;;;5030985;28;19928;-75
2023/08/20 08:58:10;;;;;;;;;;;;;;;;;;5017177;28;20134;-69
2023/08/20 09:00:37;;;;;;;;;;;;;;;;;;5051700;28;19924;-71
2023/08/20 09:03:03;;;;;;;;;;;;;;;;;;5051118;28;20337;-71
2023/08/20 09:05:29;;;;;;;;;;;;;;;;;;5052709;28;19924;-71
2023/08/20 09:07:55;;;;;;;;;;;;;;;;;;5048138;28;20393;-68
2023/08/20 09:10:21;;;;;;;;;;;;;;;;;;5046939;28;20381;-69
2023/08/20 09:12:47;;;;;;;;;;;;;;;;;;5051994;28;20251;-70
2023/08/20 09:15:13;;;;;;;;;;;;;;;;;;5039176;28;20435;-70
2023/08/20 09:17:38;;;;;;;;;;;;;;;;;;5024296;28;19975;-70
2023/08/20 09:20:04;;;;;;;;;;;;;;;;;;5039909;28;19921;-74
2023/08/20 09:22:30;;;;;;;;;;;;;;;;;;5024545;28;20362;-72
2023/08/20 09:24:56;;;;;;;;;;;;;;;;;;5023551;28;20375;-74
2023/08/20 09:27:22;;;;;;;;;;;;;;;;;;5042648;28;19936;-73
2023/08/20 09:29:48;;;;;;;;;;;;;;;;;;5043617;28;20263;-71
2023/08/20 09:32:14;;;;;;;;;;;;;;;;;;5044460;28;19969;-69
2023/08/20 09:34:40;;;;;;;;;;;;;;;;;;5051239;28;19928;-69
2023/08/20 09:37:06;;;;;;;;;;;;;;;;;;5050678;28;19921;-69
2023/08/20 09:39:32;;;;;;;;;;;;;;;;;;5050737;28;19982;-69
2023/08/20 09:41:58;;;;;;;;;;;;;;;;;;5032696;28;19931;-70
2023/08/20 09:44:24;;;;;;;;;;;;;;;;;;5030215;28;19995;-77
2023/08/20 09:46:50;;;;;;;;;;;;;;;;;;5050414;28;19928;-69
2023/08/20 09:49:16;;;;;;;;;;;;;;;;;;5051309;28;19916;-70
2023/08/20 09:51:42;;;;;;;;;;;;;;;;;;5051884;28;19966;-70
2023/08/20 09:54:08;;;;;;;;;;;;;;;;;;5043890;28;19921;-73
2023/08/20 09:56:34;;;;;;;;;;;;;;;;;;5034263;28;19927;-74
2023/08/20 09:59:00;;;;;;;;;;;;;;;;;;5033061;28;20011;-69
2023/08/20 10:01:26;;;;;;;;;;;;;;;;;;5050492;28;20015;-70
2023/08/20 10:03:52;;;;;;;;;;;;;;;;;;5051467;28;19927;-70
2023/08/20 10:06:18;;;;;;;;;;;;;;;;;;5032887;28;19920;-72
2023/08/20 10:08:45;;;;;;;;;;;;;;;;;;5032473;28;19920;-73
2023/08/20 10:11:11;;;;;;;;;;;;;;;;;;5037945;28;20290;-72
2023/08/20 10:13:37;;;;;;;;;;;;;;;;;;5041785;28;19921;-69
2023/08/20 10:16:03;;;;;;;;;;;;;;;;;;5035511;28;19921;-70
2023/08/20 10:18:29;;;;;;;;;;;;;;;;;;5047921;28;19928;-70
2023/08/20 10:20:55;;;;;;;;;;;;;;;;;;5035493;28;19924;-71
2023/08/20 10:23:24;;;;;;;;;;;;;;;;;;5052184;28;19979;-79
2023/08/20 10:25:50;;;;;;;;;;;;;;;;;;5037045;28;19990;-80
2023/08/20 10:28:16;;;;;;;;;;;;;;;;;;5026540;28;19972;-79
2023/08/20 10:30:42;;;;;;;;;;;;;;;;;;5032425;28;19921;-82
2023/08/20 10:33:08;;;;;;;;;;;;;;;;;;5030199;28;20374;-85
2023/08/20 10:35:34;;;;;;;;;;;;;;;;;;5037772;28;20373;-85
2023/08/20 10:38:00;;;;;;;;;;;;;;;;;;5037447;28;20265;-83
2023/08/20 10:40:26;;;;;;;;;;;;;;;;;;5037524;28;19983;-85
2023/08/20 10:42:52;;;;;;;;;;;;;;;;;;5036983;28;19921;-85
2023/08/20 10:45:17;;;;;;;;;;;;;;;;;;5036923;28;20015;-87
2023/08/20 10:47:44;;;;;;;;;;;;;;;;;;5035434;28;19921;-83
2023/08/20 10:50:10;;;;;;;;;;;;;;;;;;5029307;28;19924;-82
2023/08/20 10:52:36;;;;;;;;;;;;;;;;;;5037280;28;19967;-85
2023/08/20 10:55:02;;;;;;;;;;;;;;;;;;5036993;28;19960;-82
2023/08/20 10:57:28;;;;;;;;;;;;;;;;;;5036868;28;19971;-83
2023/08/20 10:59:54;;;;;;;;;;;;;;;;;;5036541;28;19924;-83
2023/08/20 11:02:20;;;;;;;;;;;;;;;;;;5033427;28;20260;-68
2023/08/20 11:04:46;;;;;;;;;;;;;;;;;;5054799;28;20313;-71
2023/08/20 11:07:12;;;;;;;;;;;;;;;;;;5052516;28;19960;-73
2023/08/20 11:09:40;;;;;;;;;;;;;;;;;;5030212;28;20036;-71
2023/08/20 11:12:06;;;;;;;;;;;;;;;;;;5053311;28;19950;-73
2023/08/20 11:14:32;;;;;;;;;;;;;;;;;;5036172;28;20376;-76
2023/08/20 11:16:58;;;;;;;;;;;;;;;;;;5053676;28;19924;-73
2023/08/20 11:19:24;;;;;;;;;;;;;;;;;;5046440;28;20443;-76
2023/08/20 11:21:50;;;;;;;;;;;;;;;;;;5035900;28;20299;-78
2023/08/20 11:24:16;;;;;;;;;;;;;;;;;;5036065;28;19928;-75
2023/08/20 11:26:42;;;;;;;;;;;;;;;;;;5036636;28;20011;-73
2023/08/20 11:29:08;;;;;;;;;;;;;;;;;;5033056;28;20385;-73
2023/08/20 11:31:34;;;;;;;;;;;;;;;;;;5038264;28;19929;-75
2023/08/20 11:34:00;;;;;;;;;;;;;;;;;;5049387;28;19921;-72
2023/08/20 11:36:26;;;;;;;;;;;;;;;;;;5036631;28;19927;-72
2023/08/20 11:38:52;;;;;;;;;;;;;;;;;;5054205;28;19921;-74
2023/08/20 11:41:18;;;;;;;;;;;;;;;;;;5043178;28;20012;-72
2023/08/20 11:43:44;;;;;;;;;;;;;;;;;;5033133;28;19961;-72
2023/08/20 11:46:10;;;;;;;;;;;;;;;;;;5042611;28;19947;-72
2023/08/20 11:48:37;;;;;;;;;;;;;;;;;;5034913;28;19935;-72
2023/08/20 11:51:02;;;;;;;;;;;;;;;;;;5033777;28;19929;-72
2023/08/20 11:53:28;;;;;;;;;;;;;;;;;;5022125;28;20011;-73
2023/08/20 11:55:54;;;;;;;;;;;;;;;;;;5052192;28;19932;-72
2023/08/20 11:58:21;;;;;;;;;;;;;;;;;;5027374;28;19921;-73
2023/08/20 12:00:47;;;;;;;;;;;;;;;;;;5037548;28;20040;-72
2023/08/20 12:03:13;;;;;;;;;;;;;;;;;;5040984;28;20217;-72
2023/08/20 12:05:39;;;;;;;;;;;;;;;;;;5044366;28;20030;-72
2023/08/20 12:08:05;;;;;;;;;;;;;;;;;;5049241;28;19939;-70
2023/08/20 12:10:31;;;;;;;;;;;;;;;;;;5050971;28;20003;-69
2023/08/20 12:12:57;;;;;;;;;;;;;;;;;;5047044;28;20104;-82
2023/08/20 12:15:23;;;;;;;;;;;;;;;;;;5034454;28;19925;-81
2023/08/20 12:17:49;;;;;;;;;;;;;;;;;;5032784;28;19924;-81
2023/08/20 12:20:15;;;;;;;;;;;;;;;;;;5035238;28;19920;-81
2023/08/20 12:22:41;;;;;;;;;;;;;;;;;;5035326;28;19991;-81
2023/08/20 12:25:07;;;;;;;;;;;;;;;;;;5035229;28;19921;-81
2023/08/20 12:27:33;;;;;;;;;;;;;;;;;;5034925;28;19921;-81
2023/08/20 12:29:59;;;;;;;;;;;;;;;;;;5035060;28;20018;-81
2023/08/20 12:32:25;;;;;;;;;;;;;;;;;;5034504;28;19974;-80
2023/08/20 12:34:51;;;;;;;;;;;;;;;;;;5035345;28;19920;-81
2023/08/20 12:37:17;;;;;;;;;;;;;;;;;;5034186;28;19927;-81
2023/08/20 12:39:43;;;;;;;;;;;;;;;;;;5018860;28;19963;-81
2023/08/20 12:42:09;;;;;;;;;;;;;;;;;;5034721;28;19932;-81
2023/08/20 12:44:35;;;;;;;;;;;;;;;;;;5032180;28;19942;-81
2023/08/20 12:47:01;;;;;;;;;;;;;;;;;;5034286;28;19924;-80
2023/08/20 12:49:26;;;;;;;;;;;;;;;;;;5034719;28;19920;-81
2023/08/20 12:51:52;;;;;;;;;;;;;;;;;;5035161;28;20381;-81
2023/08/20 12:54:18;;;;;;;;;;;;;;;;;;5034577;28;20301;-81
2023/08/20 12:56:44;;;;;;;;;;;;;;;;;;5034916;28;19986;-81
2023/08/20 12:59:10;;;;;;;;;;;;;;;;;;5033829;28;19920;-81
2023/08/20 13:01:36;;;;;;;;;;;;;;;;;;5032564;28;19955;-81
2023/08/20 13:04:03;;;;;;;;;;;;;;;;;;5035054;28;19920;-80
2023/08/20 13:06:29;;;;;;;;;;;;;;;;;;5032554;28;19921;-80
2023/08/20 13:08:55;;;;;;;;;;;;;;;;;;5026300;28;19928;-81
2023/08/20 13:11:21;;;;;;;;;;;;;;;;;;5023927;28;19921;-82
2023/08/20 13:13:47;;;;;;;;;;;;;;;;;;5033582;28;19928;-81
2023/08/20 13:16:13;;;;;;;;;;;;;;;;;;5034679;28;19920;-81
2023/08/20 13:18:39;;;;;;;;;;;;;;;;;;5034358;28;19970;-81
2023/08/20 13:21:05;;;;;;;;;;;;;;;;;;5028173;28;20358;-80
2023/08/20 13:23:31;;;;;;;;;;;;;;;;;;5033007;28;19936;-81
2023/08/20 13:25:57;;;;;;;;;;;;;;;;;;5016402;28;20060;-80
2023/08/20 13:28:23;;;;;;;;;;;;;;;;;;5016490;28;19988;-81
2023/08/20 13:30:49;;;;;;;;;;;;;;;;;;5011511;28;19930;-81
2023/08/20 13:33:15;;;;;;;;;;;;;;;;;;5011704;28;20006;-80
2023/08/20 13:35:41;;;;;;;;;;;;;;;;;;5011345;28;19925;-80
2023/08/20 13:38:07;;;;;;;;;;;;;;;;;;5028581;28;19927;-80
2023/08/20 13:40:32;;;;;;;;;;;;;;;;;;5030894;28;19920;-80
2023/08/20 13:42:58;;;;;;;;;;;;;;;;;;5030330;28;19932;-80
2023/08/20 13:45:24;;;;;;;;;;;;;;;;;;5030324;28;19921;-81
2023/08/20 13:47:51;;;;;;;;;;;;;;;;;;5029395;28;19921;-79
2023/08/20 13:50:17;;;;;;;;;;;;;;;;;;5029760;28;19921;-71
2023/08/20 13:52:43;;;;;;;;;;;;;;;;;;5030182;28;19976;-69
2023/08/20 13:55:09;;;;;;;;;;;;;;;;;;5031884;28;19925;-67
2023/08/20 13:57:34;;;;;;;;;;;;;;;;;;5034225;28;19921;-68
2023/08/20 14:00:00;;;;;;;;;;;;;;;;;;5036707;28;20374;-69
2023/08/20 14:02:26;;;;;;;;;;;;;;;;;;5037987;28;19921;-69
2023/08/20 14:04:52;;;;;;;;;;;;;;;;;;5038488;28;19925;-69
2023/08/20 14:07:18;;;;;;;;;;;;;;;;;;5036279;28;20374;-70
2023/08/20 14:09:44;;;;;;;;;;;;;;;;;;5037962;28;19925;-70
2023/08/20 14:12:10;;;;;;;;;;;;;;;;;;5036822;28;19928;-69
2023/08/20 14:14:36;;;;;;;;;;;;;;;;;;5037513;28;20009;-68
2023/08/20 14:17:02;;;;;;;;;;;;;;;;;;5037438;28;19928;-69
2023/08/20 14:19:28;;;;;;;;;;;;;;;;;;5038584;28;19929;-73
2023/08/20 14:21:54;;;;;;;;;;;;;;;;;;5034291;28;19925;-73
2023/08/20 14:24:20;;;;;;;;;;;;;;;;;;5018704;28;19921;-72
2023/08/20 14:26:46;;;;;;;;;;;;;;;;;;5036873;28;19948;-70
2023/08/20 14:29:12;;;;;;;;;;;;;;;;;;5045836;28;19921;-73
2023/08/20 14:31:38;;;;;;;;;;;;;;;;;;5020210;28;19921;-75
2023/08/20 14:34:04;;;;;;;;;;;;;;;;;;5030948;28;19956;-77
2023/08/20 14:36:30;;;;;;;;;;;;;;;;;;5030325;28;19921;-77
2023/08/20 14:38:56;;;;;;;;;;;;;;;;;;5020687;28;19920;-76
2023/08/20 14:41:22;;;;;;;;;;;;;;;;;;5021123;28;20373;-76
2023/08/20 14:43:48;;;;;;;;;;;;;;;;;;5019601;28;20281;-76
2023/08/20 14:46:14;;;;;;;;;;;;;;;;;;5020448;28;20075;-76
2023/08/20 14:48:42;;;;;;;;;;;;;;;;;;5030493;28;20047;-75
2023/08/20 14:51:08;;;;;;;;;;;;;;;;;;5040603;28;19951;-79
2023/08/20 14:53:34;;;;;;;;;;;;;;;;;;5021966;28;20256;-73
2023/08/20 14:56:00;;;;;;;;;;;;;;;;;;5057147;28;19987;-79
2023/08/20 14:58:26;;;;;;;;;;;;;;;;;;5028784;28;20371;-73
2023/08/20 15:00:52;;;;;;;;;;;;;;;;;;5050918;28;19929;-73
2023/08/20 15:03:18;;;;;;;;;;;;;;;;;;5058458;28;19946;-72
2023/08/20 15:05:44;;;;;;;;;;;;;;;;;;5039973;28;20297;-74
2023/08/20 15:08:10;;;;;;;;;;;;;;;;;;5057732;28;20601;-80
2023/08/20 15:10:36;;;;;;;;;;;;;;;;;;5036336;28;19939;-80
2023/08/20 15:13:03;;;;;;;;;;;;;;;;;;5035569;28;20349;-80
2023/08/20 15:15:29;;;;;;;;;;;;;;;;;;5037343;28;19924;-80
2023/08/20 15:17:55;;;;;;;;;;;;;;;;;;5028924;28;19983;-80
2023/08/20 15:20:21;;;;;;;;;;;;;;;;;;5017636;28;19921;-79
2023/08/20 15:22:46;;;;;;;;;;;;;;;;;;5031339;28;20419;-80
2023/08/20 15:25:12;;;;;;;;;;;;;;;;;;5036766;28;20391;-79
2023/08/20 15:27:38;;;;;;;;;;;;;;;;;;5036283;28;19924;-80
2023/08/20 15:30:04;;;;;;;;;;;;;;;;;;5035985;28;20357;-80
2023/08/20 15:32:30;;;;;;;;;;;;;;;;;;5034007;28;19927;-80
2023/08/20 15:34:56;;;;;;;;;;;;;;;;;;5016859;28;20012;-80
2023/08/20 15:37:22;;;;;;;;;;;;;;;;;;5017375;28;20401;-80
2023/08/20 15:39:48;;;;;;;;;;;;;;;;;;5016565;28;20020;-80
2023/08/20 15:42:14;;;;;;;;;;;;;;;;;;5016732;28;19925;-80
2023/08/20 15:44:40;;;;;;;;;;;;;;;;;;5016183;28;20440;-80
2023/08/20 15:47:06;;;;;;;;;;;;;;;;;;5016381;28;19920;-80
2023/08/20 15:49:32;;;;;;;;;;;;;;;;;;5032226;28;19925;-80
2023/08/20 15:51:58;;;;;;;;;;;;;;;;;;5027150;28;20611;-80
2023/08/20 15:54:25;;;;;;;;;;;;;;;;;;5016786;28;19971;-80
2023/08/20 15:56:52;;;;;;;;;;;;;;;;;;5015956;28;19983;-83
2023/08/20 16:04:30;;;;;;;;;;;;;;;;;;5419941;22;19921;-80
2023/08/20 16:06:56;;;;;;;;;;;;;;;;;;5030068;28;19971;-80
2023/08/20 16:09:21;;;;;;;;;;;;;;;;;;5022641;28;19957;-80
2023/08/20 16:11:47;;;;;;;;;;;;;;;;;;5027573;28;19925;-81
2023/08/20 16:14:13;;;;;;;;;;;;;;;;;;5015235;28;20007;-81
2023/08/20 16:16:39;;;;;;;;;;;;;;;;;;5032525;28;20003;-81
2023/08/20 16:19:05;;;;;;;;;;;;;;;;;;5031902;28;19928;-79
2023/08/20 16:21:31;;;;;;;;;;;;;;;;;;5031196;28;20058;-79
2023/08/20 16:23:57;;;;;;;;;;;;;;;;;;5015354;28;19967;-75
2023/08/20 16:26:23;;;;;;;;;;;;;;;;;;5030909;28;19971;-75
2023/08/20 16:28:49;;;;;;;;;;;;;;;;;;5030857;28;19925;-76
2023/08/20 16:31:15;;;;;;;;;;;;;;;;;;5030157;28;19987;-80
2023/08/20 16:33:41;;;;;;;;;;;;;;;;;;5031239;28;20445;-77
2023/08/20 16:36:07;;;;;;;;;;;;;;;;;;5031917;28;20038;-78
2023/08/20 16:38:33;;;;;;;;;;;;;;;;;;5031738;28;19925;-78
2023/08/20 16:40:59;;;;;;;;;;;;;;;;;;5031863;28;19921;-79